Details From EFHK - Helsinki Vantaa
To LIRF - Roma Fiumicino Leonardo Da Vinci
Flight Number -
Tags Generated
Created
Modified
Stats Distance 1,207 nm / 2,236 km
Max Altitude 0 ft / 0 m
Waypoints 7
Social Downloads 2
Likes 0
Share VATSIM

Download

Looking for another format? Having issues loading an existing format? Contact us
Advertisement - Login to hide

Notes

Generated

Route

EFHK LIE NEREK NOVUM NANIS CMP LIRF

ID Type Via Altitude Latitude Longitude Leg Dist Tot Dist Heading (true) Name
O EFHK APT - 0 ft / 0 m 60.33028˚ 24.96450˚ - 0 nm - -
LIE VOR - 0 ft / 0 m 56.51856˚ 21.09197˚ 259 nm 259 nm 210° / 206° -
NEREK FIX - 0 ft / 0 m 53.14472˚ 18.47222˚ 221 nm 481 nm 205° / 203° -
NOVUM FIX - 0 ft / 0 m 49.57278˚ 16.07334˚ 232 nm 713 nm 204° / 202° -
NANIS FIX - 0 ft / 0 m 45.79099˚ 14.03297˚ 241 nm 955 nm 201° / 199° -
CMP NDB - 0 ft / 0 m 42.12495˚ 12.38039˚ 231 nm 1186 nm 199° / 197° -
O LIRF APT - 0 ft / 0 m 41.79932˚ 12.23212˚ 20 nm 1207 nm 199° / 199° -

Altitude Profile

Advertisement - Login to hide

Weather


0- 5 10 15 20 25 30 35+ Temperature / ° C

Clouds and Precipitation
Forecast for 2018-05-26 00:00 UTC. Updated 3 hours ago

Ground ~20,000 ft ~40,000 ft Winds

EFHK

Details ICAO EFHK (HEL)
Name Helsinki Vantaa
Region Finland
Timezone Europe/Helsinki (UTC+3.0)
Stats Elevation 179 ft / 55 m (AMSL)
Location 60.320569° 24.952668°
Runways 3
Magnetic Variation 9.024° E

METAR

EFHK 260220Z VRB01KT CAVOK 06/04 Q1030 NOSIG

Decode

TAF

TAF EFHK 260236Z 2603/2703 18004KT CAVOK= TAF EFOU 260226Z 2603/2703 25006KT CAVOK BECMG 2609/2611 32012KT

Decode

Departure Runways

ID Width Length Bearing (true) Bearing (mag) Surface Threshold Offset Overrun Length
04L 197 ft / 60 m 9,817 ft / 2,992 m 47.43° 38.41° Asphalt 800 ft / 244 m 0 ft / 0 m
04R 197 ft / 60 m 10,472 ft / 3,192 m 47.46° 38.44° Asphalt 262 ft / 80 m 0 ft / 0 m
15 197 ft / 60 m 9,497 ft / 2,895 m 153.08° 144.06° Asphalt 0 ft / 0 m 198 ft / 60 m
22L 197 ft / 60 m 10,472 ft / 3,192 m 227.50° 218.48° Asphalt 0 ft / 0 m 197 ft / 60 m
22R 197 ft / 60 m 9,817 ft / 2,992 m 227.46° 218.44° Asphalt 912 ft / 278 m 0 ft / 0 m
33 197 ft / 60 m 9,497 ft / 2,895 m 333.10° 324.08° Asphalt 0 ft / 0 m 197 ft / 60 m

LIRF

Details ICAO LIRF (FCO)
Name Roma Fiumicino Leonardo Da Vinci
Region Italy
Timezone Europe/Rome (UTC+2.0)
Stats Elevation 15 ft / 5 m (AMSL)
Location 41.810809° 12.250897°
Runways 3
Magnetic Variation 3.042° E

METAR

LIRF 260220Z 35003KT 6000 NSC 15/14 Q1017 BECMG 4000 BR

Decode

TAF

TAF LIRF 252300Z 2600/2706 VRB05KT CAVOK TEMPO 2601/2605 1500 BCFG BECMG 2608/2610 27012KT BECMG 2618/2620 VRB05KT

Decode

Destination Runways

ID Width Length Bearing (true) Bearing (mag) Surface Threshold Offset Overrun Length
07 148 ft / 45 m 10,835 ft / 3,302 m 69.67° 66.63° Asphalt 1,365 ft / 416 m 0 ft / 0 m
16L 197 ft / 60 m 12,832 ft / 3,911 m 162.67° 159.63° Asphalt 0 ft / 0 m 0 ft / 0 m
16R 197 ft / 60 m 12,822 ft / 3,908 m 162.66° 159.62° Asphalt 0 ft / 0 m 0 ft / 0 m
25 148 ft / 45 m 10,835 ft / 3,302 m 249.70° 246.66° Asphalt 0 ft / 0 m 0 ft / 0 m
34L 197 ft / 60 m 12,822 ft / 3,908 m 342.67° 339.63° Asphalt 1,053 ft / 321 m 0 ft / 0 m
34R 197 ft / 60 m 12,832 ft / 3,911 m 342.68° 339.64° Asphalt 0 ft / 0 m 0 ft / 0 m

Approach Navaids

Runway Type Ident Frequency Range Bearing (true) Bearing (mag) Slope Elevation
16L Localiser FLL 108.10 MHz 18 nm / 33 km 162.69° 159.64° - 15 ft / 5 m (AMSL)
16L Glidescope FLL 108.10 MHz 10 nm / 19 km 162.68° 159.63° 3.00° 15 ft / 5 m (AMSL)
16R Localiser FRR 110.30 MHz 18 nm / 33 km 162.67° 159.63° - 15 ft / 5 m (AMSL)
16R Glidescope FRR 110.30 MHz 10 nm / 19 km 162.66° 159.62° 3.00° 15 ft / 5 m (AMSL)
25 Localiser FEE 110.15 MHz 18 nm / 33 km 249.67° 246.63° - 15 ft / 5 m (AMSL)
25 Glidescope FEE 110.15 MHz 10 nm / 19 km 249.68° 246.64° 3.00° 15 ft / 5 m (AMSL)
25 DME FEE 110.15 MHz 25 nm / 46 km - - - 25 ft / 8 m (AMSL)
34L Localiser ISW 108.90 MHz 18 nm / 33 km 342.66° 339.62° - 15 ft / 5 m (AMSL)
34L Glidescope ISW 108.90 MHz 10 nm / 19 km 342.66° 339.62° 3.00° 15 ft / 5 m (AMSL)
34L DME ISW 108.90 MHz 25 nm / 46 km - - - 15 ft / 5 m (AMSL)
34R Localiser FSS 111.55 MHz 18 nm / 33 km 342.67° 339.63° - 15 ft / 5 m (AMSL)
34R Glidescope FSS 111.55 MHz 10 nm / 19 km 342.68° 339.63° 3.00° 15 ft / 5 m (AMSL)
34R DME FSS 111.55 MHz 25 nm / 46 km - - - 15 ft / 5 m (AMSL)

Popular Alternatives